aviador You're here:

SCQP Decoded Metar

in
Report Time2018-06-25 06:00:00
UTC Time2018-06-25 06:24:36
Flight Rules mvfr MVFR
Wind040° at 05 kt
W.Rank040° ranks 25
Current wind is above 040° avg. (4.1)
Visibility9999 m
Phenomena:Light Shower Rain
Clouds:Overcast 021 Hf
Expected CloudBase > 800 ft AGL from Temp-Dew spread
Ceiling2,100 ft
Temp06°C
Dew Point04°C (87% RH)
AAT2.9°C
QNH1022 hPa
Raw Report
METAR SCQP 250600Z 04005KT 010V070 9999 -SHRA OVC021 06/04 Q1022=

Extra information for SCQP:More info

Social comments